createdAt,value
2018-03-16T00:01:15.486Z,54.93
2018-03-16T00:03:43.869Z,51.00
2018-03-16T00:06:12.216Z,54.27
2018-03-16T00:08:40.584Z,52.90
2018-03-16T00:11:09.054Z,50.70
2018-03-16T00:13:37.465Z,55.03
2018-03-16T00:16:05.819Z,53.03
2018-03-16T00:18:34.216Z,52.43
2018-03-16T00:21:02.572Z,50.30
2018-03-16T00:23:30.988Z,50.40
2018-03-16T00:25:59.343Z,50.27
2018-03-16T00:28:27.727Z,51.33
2018-03-16T00:30:56.413Z,48.60
2018-03-16T00:33:24.810Z,51.20
2018-03-16T00:35:53.159Z,49.87
2018-03-16T00:38:21.528Z,49.83
2018-03-16T00:40:49.960Z,46.87
2018-03-16T00:43:18.352Z,50.07
2018-03-16T00:45:46.747Z,50.30
2018-03-16T00:48:15.097Z,48.17
2018-03-16T00:50:43.460Z,49.17
2018-03-16T00:53:11.899Z,48.93
2018-03-16T00:55:40.260Z,48.03
2018-03-16T00:58:08.682Z,48.50
2018-03-16T01:00:37.572Z,49.57
2018-03-16T01:03:06.086Z,50.47
2018-03-16T01:05:34.497Z,50.57
2018-03-16T01:08:02.848Z,46.80
2018-03-16T01:10:31.258Z,49.00
2018-03-16T01:12:59.602Z,46.80
2018-03-16T01:15:27.981Z,46.90
2018-03-16T01:17:56.319Z,47.57
2018-03-16T01:20:24.689Z,45.97
2018-03-16T01:22:53.034Z,49.70
2018-03-16T01:25:21.399Z,47.87
2018-03-16T01:27:49.814Z,44.47
2018-03-16T01:30:18.180Z,49.13
2018-03-16T01:32:46.737Z,46.27
2018-03-16T01:35:15.064Z,49.53
2018-03-16T01:37:43.422Z,48.47
2018-03-16T01:40:12.027Z,45.30
2018-03-16T01:42:40.578Z,49.00
2018-03-16T01:45:08.974Z,47.27
2018-03-16T01:47:37.328Z,48.43
2018-03-16T01:50:05.753Z,49.33
2018-03-16T01:52:34.136Z,48.77
2018-03-16T01:55:02.492Z,49.40
2018-03-16T01:57:31.034Z,51.53
2018-03-16T01:59:59.405Z,49.07
2018-03-16T02:02:27.820Z,50.77
2018-03-16T02:04:56.199Z,51.20
2018-03-16T02:07:24.583Z,50.27
2018-03-16T02:09:52.927Z,50.80
2018-03-16T02:12:21.368Z,49.47
2018-03-16T02:14:49.722Z,52.77
2018-03-16T02:17:18.193Z,50.30
2018-03-16T02:19:46.552Z,50.27
2018-03-16T02:22:14.921Z,52.20
2018-03-16T02:24:43.276Z,51.30
2018-03-16T02:27:11.848Z,51.40
2018-03-16T02:29:40.209Z,50.20
2018-03-16T02:32:08.598Z,54.07
2018-03-16T02:34:37.124Z,49.17
2018-03-16T02:37:05.522Z,53.03
2018-03-16T02:39:33.869Z,55.23
2018-03-16T02:42:02.290Z,52.33
2018-03-16T02:44:30.697Z,54.23
2018-03-16T02:46:59.036Z,53.53
2018-03-16T02:49:27.420Z,51.13
2018-03-16T02:51:55.850Z,51.07
2018-03-16T02:54:24.561Z,51.83
2018-03-16T02:56:52.953Z,52.40
2018-03-16T02:59:21.362Z,54.63
2018-03-16T03:01:49.702Z,56.20
2018-03-16T03:04:18.088Z,47.53
2018-03-16T03:06:46.448Z,53.23
2018-03-16T03:09:14.823Z,52.97
2018-03-16T03:11:43.180Z,52.00
2018-03-16T03:14:11.542Z,52.53
2018-03-16T03:16:39.906Z,51.93
2018-03-16T03:19:08.268Z,52.00
2018-03-16T03:21:36.626Z,54.97
2018-03-16T03:24:05.055Z,55.37
2018-03-16T03:26:33.963Z,50.43
2018-03-16T03:29:02.342Z,57.97
2018-03-16T03:31:30.881Z,52.30
2018-03-16T03:33:59.304Z,53.57
2018-03-16T03:36:27.684Z,52.57
2018-03-16T03:38:56.140Z,52.13
2018-03-16T03:41:24.526Z,56.07
2018-03-16T03:43:52.880Z,53.13
2018-03-16T03:46:21.239Z,52.63
2018-03-16T03:48:49.576Z,50.83
2018-03-16T03:51:17.958Z,50.30
2018-03-16T03:53:46.311Z,53.20
2018-03-16T03:56:14.680Z,52.87
2018-03-16T03:58:43.109Z,51.57
2018-03-16T04:01:11.475Z,54.10
2018-03-16T04:03:39.835Z,53.43
2018-03-16T04:06:08.230Z,52.87
2018-03-16T04:08:36.611Z,52.70
2018-03-16T04:11:04.982Z,54.30
2018-03-16T04:13:33.333Z,55.30
2018-03-16T04:16:01.724Z,55.47
2018-03-16T04:18:30.123Z,52.43
2018-03-16T04:20:58.494Z,53.40
2018-03-16T04:23:26.836Z,51.47
2018-03-16T04:25:55.218Z,52.83
2018-03-16T04:28:23.572Z,55.77
2018-03-16T04:30:51.924Z,55.37
2018-03-16T04:33:20.279Z,52.77
2018-03-16T04:35:48.648Z,50.70
2018-03-16T04:38:17.004Z,53.03
2018-03-16T04:40:45.373Z,53.20
2018-03-16T04:43:13.735Z,53.47
2018-03-16T04:45:42.094Z,54.73
2018-03-16T04:48:10.477Z,56.77
2018-03-16T04:50:38.836Z,54.23
2018-03-16T04:53:07.225Z,53.83
2018-03-16T04:55:35.699Z,49.87
2018-03-16T04:58:04.103Z,55.63
2018-03-16T05:00:32.467Z,55.33
2018-03-16T05:03:00.864Z,56.80
2018-03-16T05:05:29.246Z,56.67
2018-03-16T05:07:57.716Z,55.17
2018-03-16T05:10:26.156Z,51.70
2018-03-16T05:12:54.509Z,51.60
2018-03-16T05:15:22.878Z,55.20
2018-03-16T05:17:51.236Z,54.80
2018-03-16T05:20:19.632Z,54.83
2018-03-16T05:22:48.104Z,50.37
2018-03-16T05:25:16.459Z,51.57
2018-03-16T05:27:44.978Z,55.73
2018-03-16T05:30:13.328Z,53.33
2018-03-16T05:32:41.680Z,52.03
2018-03-16T05:35:10.281Z,51.30
2018-03-16T05:37:38.634Z,54.23
2018-03-16T05:40:07.667Z,51.10
2018-03-16T05:42:36.536Z,53.63
2018-03-16T05:45:05.031Z,52.27
2018-03-16T05:47:33.468Z,49.03
2018-03-16T05:50:01.845Z,49.23
2018-03-16T05:52:30.267Z,48.03
2018-03-16T05:54:58.640Z,51.03
2018-03-16T05:57:27.033Z,49.53
2018-03-16T05:59:55.420Z,48.60
2018-03-16T06:02:23.803Z,47.97
2018-03-16T06:04:52.172Z,50.83
2018-03-16T06:07:20.526Z,50.83
2018-03-16T06:09:48.887Z,46.37
2018-03-16T06:12:17.245Z,46.60
2018-03-16T06:14:45.848Z,47.80
2018-03-16T06:17:14.297Z,47.67
2018-03-16T06:19:42.672Z,50.63
2018-03-16T06:22:11.063Z,49.70
2018-03-16T06:24:39.576Z,48.13
2018-03-16T06:27:07.960Z,52.73
2018-03-16T06:29:36.366Z,50.73
2018-03-16T06:32:04.727Z,50.40
2018-03-16T06:34:33.082Z,53.03
2018-03-16T06:37:01.440Z,51.77
2018-03-16T06:39:29.913Z,51.03
2018-03-16T06:41:58.261Z,50.30
2018-03-16T06:44:26.740Z,48.93
2018-03-16T06:46:55.109Z,50.73
2018-03-16T06:49:23.513Z,50.23
2018-03-16T06:51:52.025Z,49.17
2018-03-16T06:54:20.980Z,49.50
2018-03-16T06:56:49.346Z,48.50
2018-03-16T06:59:17.802Z,52.67
2018-03-16T07:01:46.156Z,49.07
2018-03-16T07:04:14.515Z,49.80
2018-03-16T07:06:42.939Z,49.40
2018-03-16T07:09:12.158Z,48.57
2018-03-16T07:11:40.568Z,46.47
2018-03-16T07:14:08.924Z,49.33
2018-03-16T07:16:37.363Z,46.83
2018-03-16T07:19:05.733Z,43.17
2018-03-16T07:21:34.111Z,44.10
2018-03-16T07:24:02.464Z,44.10
2018-03-16T07:26:30.823Z,46.77
2018-03-16T07:28:59.237Z,44.97
2018-03-16T07:31:27.615Z,45.80
2018-03-16T07:33:55.967Z,39.63
2018-03-16T07:36:24.477Z,41.50
2018-03-16T07:38:52.839Z,38.97
2018-03-16T07:41:21.448Z,43.47
2018-03-16T07:43:49.823Z,38.97
2018-03-16T07:46:18.187Z,41.53
2018-03-16T07:48:46.589Z,36.70
2018-03-16T07:51:15.024Z,40.87
2018-03-16T07:53:43.394Z,36.23
2018-03-16T07:56:11.817Z,35.63
2018-03-16T07:58:40.213Z,36.37
2018-03-16T08:01:08.632Z,35.03
2018-03-16T08:03:36.997Z,32.90
2018-03-16T08:06:05.346Z,35.10
2018-03-16T08:08:33.703Z,32.53
2018-03-16T08:11:02.046Z,33.33
2018-03-16T08:13:30.460Z,30.73
2018-03-16T08:15:58.812Z,30.03
2018-03-16T08:18:27.227Z,30.87
2018-03-16T08:20:55.580Z,30.63
2018-03-16T08:23:24.041Z,28.73
2018-03-16T08:25:52.421Z,29.27
2018-03-16T08:28:20.796Z,30.03
2018-03-16T08:30:49.193Z,27.70
2018-03-16T08:33:17.598Z,27.23
2018-03-16T08:35:45.953Z,27.83
2018-03-16T08:38:14.328Z,27.57
2018-03-16T08:40:42.762Z,28.47
2018-03-16T08:43:11.270Z,28.20
2018-03-16T08:45:39.649Z,26.40
2018-03-16T08:48:08.048Z,30.70
2018-03-16T08:50:36.448Z,31.13
2018-03-16T08:53:04.836Z,30.00
2018-03-16T08:55:33.196Z,29.03
2018-03-16T08:58:01.593Z,30.23
2018-03-16T09:00:30.015Z,28.17
2018-03-16T09:02:58.356Z,32.07
2018-03-16T09:05:26.749Z,29.00
2018-03-16T09:07:55.192Z,31.67
2018-03-16T09:10:23.742Z,29.83
2018-03-16T09:12:52.184Z,31.30
2018-03-16T09:15:20.576Z,31.30
2018-03-16T09:17:49.144Z,30.97
2018-03-16T09:20:17.515Z,31.20
2018-03-16T09:22:45.873Z,30.10
2018-03-16T09:25:14.375Z,29.53
2018-03-16T09:27:42.837Z,29.27
2018-03-16T09:30:11.178Z,29.33
2018-03-16T09:32:39.577Z,31.33
2018-03-16T09:35:07.972Z,30.47
2018-03-16T09:37:36.419Z,32.17
2018-03-16T09:40:04.822Z,30.97
2018-03-16T09:42:33.167Z,31.07
2018-03-16T09:45:01.568Z,29.10
2018-03-16T09:47:29.924Z,29.30
2018-03-16T09:49:58.313Z,28.97
2018-03-16T09:52:26.693Z,30.07
2018-03-16T09:55:06.938Z,30.87
2018-03-16T09:57:35.381Z,31.70
2018-03-16T10:00:03.740Z,30.23
2018-03-16T10:02:32.117Z,30.03
2018-03-16T10:05:00.596Z,34.23
2018-03-16T10:07:28.977Z,28.13
2018-03-16T10:09:57.387Z,30.27
2018-03-16T10:12:25.848Z,30.80
2018-03-16T10:14:54.224Z,25.90
2018-03-16T10:17:22.611Z,26.63
2018-03-16T10:19:51.000Z,29.20
2018-03-16T10:22:19.344Z,28.73
2018-03-16T10:24:47.724Z,28.37
2018-03-16T10:27:16.137Z,29.90
2018-03-16T10:29:44.619Z,30.63
2018-03-16T10:32:13.026Z,29.63
2018-03-16T10:34:41.379Z,28.73
2018-03-16T10:37:10.014Z,26.97
2018-03-16T10:39:38.375Z,27.70
2018-03-16T10:42:06.770Z,29.77
2018-03-16T10:44:35.175Z,26.93
2018-03-16T10:47:03.517Z,28.93
2018-03-16T10:49:31.900Z,28.40
2018-03-16T10:52:00.529Z,28.67
2018-03-16T10:54:28.901Z,29.23
2018-03-16T10:56:57.285Z,30.30
2018-03-16T10:59:25.652Z,29.37
2018-03-16T11:01:55.971Z,29.50
2018-03-16T11:04:35.205Z,33.60
2018-03-16T11:07:09.150Z,30.97
2018-03-16T11:09:37.518Z,31.87
2018-03-16T11:12:05.938Z,31.63
2018-03-16T11:14:34.286Z,30.23
2018-03-16T11:17:02.651Z,29.63
2018-03-16T11:19:31.014Z,30.67
2018-03-16T11:21:59.600Z,30.73
2018-03-16T11:24:28.101Z,31.73
2018-03-16T11:26:56.469Z,33.83
2018-03-16T11:29:24.903Z,31.20
2018-03-16T11:31:53.273Z,30.47
2018-03-16T11:34:21.654Z,29.57
2018-03-16T11:36:50.059Z,30.13
2018-03-16T11:39:18.443Z,29.60
2018-03-16T11:41:46.844Z,30.13
2018-03-16T11:44:15.212Z,30.30
2018-03-16T11:46:43.579Z,31.10
2018-03-16T11:49:11.962Z,31.63
2018-03-16T11:51:40.369Z,29.97
2018-03-16T11:54:08.748Z,32.37
2018-03-16T11:56:37.123Z,29.30
2018-03-16T11:59:05.482Z,26.83
2018-03-16T12:01:33.850Z,31.60
2018-03-16T12:04:02.270Z,28.47
2018-03-16T12:06:30.633Z,29.23
2018-03-16T12:08:58.980Z,28.83
2018-03-16T12:11:27.455Z,28.50
2018-03-16T12:13:55.833Z,30.37
2018-03-16T12:16:24.222Z,29.37
2018-03-16T12:18:52.635Z,30.30
2018-03-16T12:21:21.760Z,29.73
2018-03-16T12:23:50.130Z,27.47
2018-03-16T12:26:18.519Z,29.23
2018-03-16T12:28:49.951Z,26.30
2018-03-16T12:31:15.340Z,30.93
2018-03-16T12:33:43.789Z,30.90
2018-03-16T12:36:12.159Z,30.53
2018-03-16T12:38:40.516Z,30.90
2018-03-16T12:41:08.924Z,30.80
2018-03-16T12:43:37.381Z,30.00
2018-03-16T12:46:06.351Z,29.10
2018-03-16T12:48:34.738Z,31.13
2018-03-16T12:51:03.105Z,26.73
2018-03-16T12:53:31.511Z,25.80
2018-03-16T12:55:59.907Z,25.20
2018-03-16T12:58:28.278Z,26.33
2018-03-16T13:00:56.632Z,25.60
2018-03-16T13:03:24.991Z,23.40
2018-03-16T13:05:53.827Z,23.80
2018-03-16T13:08:22.216Z,24.87
2018-03-16T13:10:50.566Z,24.53
2018-03-16T13:13:18.925Z,22.90
2018-03-16T13:15:47.454Z,22.17
2018-03-16T13:18:15.836Z,22.17
2018-03-16T13:20:44.185Z,23.80
2018-03-16T13:23:12.659Z,23.17
2018-03-16T13:25:41.077Z,21.50
2018-03-16T13:28:09.477Z,22.67
2018-03-16T13:30:37.874Z,22.33
2018-03-16T13:33:06.255Z,23.17
2018-03-16T13:35:34.650Z,25.33
2018-03-16T13:38:03.026Z,25.20
2018-03-16T13:40:31.590Z,26.23
2018-03-16T13:43:00.013Z,29.33
2018-03-16T13:45:28.663Z,28.93
2018-03-16T13:47:57.026Z,27.63
2018-03-16T13:50:25.380Z,26.80
2018-03-16T13:52:53.764Z,28.07
2018-03-16T13:55:22.128Z,26.53
2018-03-16T13:57:50.533Z,28.87
2018-03-16T14:00:18.905Z,30.07
2018-03-16T14:02:47.359Z,29.47
2018-03-16T14:05:15.751Z,26.67
2018-03-16T14:07:44.149Z,25.73
2018-03-16T14:10:12.553Z,30.10
2018-03-16T14:12:40.938Z,28.97
2018-03-16T14:15:09.326Z,29.10
2018-03-16T14:17:37.700Z,28.47
2018-03-16T14:20:06.253Z,27.43
2018-03-16T14:22:34.584Z,32.53
2018-03-16T14:25:02.960Z,28.07
2018-03-16T14:27:31.327Z,30.83
2018-03-16T14:29:59.685Z,32.17
2018-03-16T14:32:28.052Z,31.30
2018-03-16T14:34:56.461Z,34.40
2018-03-16T14:37:24.826Z,30.50
2018-03-16T14:39:53.194Z,32.20
2018-03-16T14:42:21.555Z,30.93
2018-03-16T14:44:49.921Z,30.23
2018-03-16T14:47:18.281Z,31.77
2018-03-16T14:49:46.733Z,33.73
2018-03-16T14:52:15.200Z,31.37
2018-03-16T14:54:43.642Z,28.73
2018-03-16T14:57:12.037Z,30.07
2018-03-16T14:59:40.485Z,30.30
2018-03-16T15:02:09.010Z,29.73
2018-03-16T15:04:37.404Z,29.67
2018-03-16T15:07:05.766Z,26.53
2018-03-16T15:09:34.119Z,30.07
2018-03-16T15:12:02.473Z,28.87
2018-03-16T15:14:30.823Z,29.83
2018-03-16T15:16:59.322Z,25.73
2018-03-16T15:19:27.673Z,30.00
2018-03-16T15:21:56.120Z,27.63
2018-03-16T15:24:24.859Z,29.67
2018-03-16T15:26:53.300Z,25.87
2018-03-16T15:29:21.622Z,27.40
2018-03-16T15:31:49.952Z,26.30
2018-03-16T15:34:18.303Z,27.57
2018-03-16T15:36:46.734Z,23.50
2018-03-16T15:39:15.112Z,25.50
2018-03-16T15:41:43.445Z,28.90
2018-03-16T15:44:11.767Z,23.57
2018-03-16T15:46:40.089Z,26.17
2018-03-16T15:49:08.477Z,26.03
2018-03-16T15:51:36.825Z,25.20
2018-03-16T15:54:05.157Z,24.87
2018-03-16T15:56:33.567Z,25.20
2018-03-16T15:59:01.923Z,24.07
2018-03-16T16:01:30.350Z,23.93
2018-03-16T16:03:58.681Z,23.17
2018-03-16T16:06:27.006Z,27.10
2018-03-16T16:08:55.337Z,26.33
2018-03-16T16:11:23.656Z,22.63
2018-03-16T16:13:51.978Z,25.07
2018-03-16T16:16:20.308Z,27.23
2018-03-16T16:18:48.629Z,25.73
2018-03-16T16:21:16.964Z,24.77
2018-03-16T16:23:45.311Z,29.30
2018-03-16T16:26:13.618Z,26.33
2018-03-16T16:28:42.055Z,24.80
2018-03-16T16:31:10.394Z,25.70
2018-03-16T16:33:38.936Z,24.00
2018-03-16T16:36:07.376Z,25.30
2018-03-16T16:38:35.725Z,24.73
2018-03-16T16:41:04.060Z,23.97
2018-03-16T16:43:32.451Z,23.33
2018-03-16T16:46:00.765Z,24.57
2018-03-16T16:48:29.090Z,22.10
2018-03-16T16:50:57.421Z,24.27
2018-03-16T16:53:25.763Z,23.43
2018-03-16T16:55:54.093Z,21.33
2018-03-16T16:58:22.438Z,22.97
2018-03-16T17:00:50.777Z,24.00
2018-03-16T17:03:19.118Z,21.97
2018-03-16T17:05:47.450Z,23.40
2018-03-16T17:08:15.780Z,24.37
2018-03-16T17:10:44.102Z,20.63
2018-03-16T17:13:12.439Z,20.17
2018-03-16T17:15:40.779Z,21.20
2018-03-16T17:18:09.206Z,21.17
2018-03-16T17:20:37.614Z,21.00
2018-03-16T17:23:06.107Z,24.13
2018-03-16T17:25:34.655Z,21.43
2018-03-16T17:28:03.049Z,23.50
2018-03-16T17:30:31.404Z,19.60
2018-03-16T17:32:59.738Z,22.97
2018-03-16T17:35:28.091Z,22.53
2018-03-16T17:37:56.432Z,21.40
2018-03-16T17:40:24.776Z,20.87
2018-03-16T17:42:53.209Z,21.60
2018-03-16T17:45:21.581Z,22.13
2018-03-16T17:47:49.933Z,21.00
2018-03-16T17:50:18.267Z,22.27
2018-03-16T17:52:46.603Z,21.20
2018-03-16T17:55:14.985Z,21.77
2018-03-16T17:57:43.362Z,25.20
2018-03-16T18:00:11.702Z,21.47
2018-03-16T18:02:40.101Z,22.40
2018-03-16T18:05:08.544Z,24.57
2018-03-16T18:07:36.920Z,23.63
2018-03-16T18:10:05.267Z,21.20
2018-03-16T18:12:33.745Z,22.27
2018-03-16T18:15:02.105Z,20.23
2018-03-16T18:17:30.434Z,22.93
2018-03-16T18:19:59.096Z,21.97
2018-03-16T18:22:27.492Z,20.43
2018-03-16T18:24:55.829Z,21.40
2018-03-16T18:27:24.178Z,18.43
2018-03-16T18:29:52.691Z,21.27
2018-03-16T18:32:21.041Z,19.50
2018-03-16T18:34:49.443Z,20.03
2018-03-16T18:37:17.869Z,19.87
2018-03-16T18:39:46.189Z,20.10
2018-03-16T18:42:14.552Z,21.93
2018-03-16T18:44:42.890Z,19.27
2018-03-16T18:47:14.053Z,19.90
2018-03-16T18:49:42.382Z,20.73
2018-03-16T18:52:10.923Z,20.73
2018-03-16T18:54:39.263Z,20.33
2018-03-16T18:57:07.646Z,19.60
2018-03-16T18:59:36.134Z,19.77
2018-03-16T19:02:04.469Z,21.17
2018-03-16T19:04:32.855Z,19.67
2018-03-16T19:07:01.213Z,19.53
2018-03-16T19:09:29.549Z,20.67
2018-03-16T19:11:57.883Z,18.93
2018-03-16T19:14:26.235Z,22.20
2018-03-16T19:16:54.596Z,20.87
2018-03-16T19:19:22.940Z,20.93
2018-03-16T19:21:51.303Z,22.77
2018-03-16T19:24:19.757Z,19.43
2018-03-16T19:26:48.087Z,22.03
2018-03-16T19:29:16.472Z,21.33
2018-03-16T19:31:44.791Z,22.23
2018-03-16T19:34:13.156Z,19.83
2018-03-16T19:36:41.498Z,21.47
2018-03-16T19:39:09.888Z,21.37
2018-03-16T19:41:38.344Z,20.33
2018-03-16T19:44:06.810Z,21.83
2018-03-16T19:46:35.165Z,20.20
2018-03-16T19:49:03.849Z,20.73
2018-03-16T19:51:33.143Z,22.00
2018-03-16T19:54:01.489Z,21.73
2018-03-16T19:56:29.839Z,21.80
2018-03-16T19:58:58.167Z,19.80
2018-03-16T20:01:26.495Z,21.30
2018-03-16T20:03:54.826Z,20.73
2018-03-16T20:06:23.149Z,21.60
2018-03-16T20:08:51.514Z,19.73
2018-03-16T20:11:19.888Z,20.33
2018-03-16T20:13:48.218Z,21.37
2018-03-16T20:16:16.597Z,22.03
2018-03-16T20:18:44.941Z,20.23
2018-03-16T20:21:13.292Z,20.07
2018-03-16T20:23:41.616Z,19.13
2018-03-16T20:26:10.174Z,20.50
2018-03-16T20:28:38.519Z,20.60
2018-03-16T20:31:07.026Z,20.70
2018-03-16T20:33:35.363Z,19.77
2018-03-16T20:36:03.681Z,20.90
2018-03-16T20:38:32.020Z,20.63
2018-03-16T20:41:00.465Z,20.27
2018-03-16T20:43:28.802Z,19.90
2018-03-16T20:45:57.191Z,20.87
2018-03-16T20:48:25.650Z,20.67
2018-03-16T20:50:53.992Z,21.40
2018-03-16T20:53:22.388Z,21.27
2018-03-16T20:55:50.730Z,21.70
2018-03-16T20:58:19.075Z,21.37
2018-03-16T21:00:47.409Z,19.13
2018-03-16T21:03:15.746Z,20.83
2018-03-16T21:05:44.092Z,18.63
2018-03-16T21:08:12.574Z,19.50
2018-03-16T21:10:40.940Z,18.87
2018-03-16T21:13:09.301Z,20.33
2018-03-16T21:15:37.730Z,17.83
2018-03-16T21:18:06.264Z,18.93
2018-03-16T21:20:34.605Z,17.60
2018-03-16T21:23:02.967Z,18.37
2018-03-16T21:25:31.276Z,18.33
2018-03-16T21:27:59.651Z,18.03
2018-03-16T21:30:28.011Z,16.70
2018-03-16T21:32:56.340Z,19.47
2018-03-16T21:35:24.667Z,18.57
2018-03-16T21:37:53.015Z,17.63
2018-03-16T21:40:21.484Z,18.63
2018-03-16T21:42:49.841Z,18.03
2018-03-16T21:45:18.207Z,17.37
2018-03-16T21:47:46.534Z,17.70
2018-03-16T21:50:14.888Z,18.40
2018-03-16T21:52:43.207Z,17.27
2018-03-16T21:55:11.541Z,17.37
2018-03-16T21:57:39.863Z,16.20
2018-03-16T22:00:08.275Z,16.10
2018-03-16T22:02:36.599Z,17.80
2018-03-16T22:05:04.919Z,16.73
2018-03-16T22:07:33.328Z,17.83
2018-03-16T22:10:01.731Z,16.33
2018-03-16T22:12:30.058Z,18.30
2018-03-16T22:14:58.464Z,17.57
2018-03-16T22:17:26.793Z,16.83
2018-03-16T22:19:55.158Z,16.80
2018-03-16T22:22:23.503Z,17.63
2018-03-16T22:24:51.868Z,19.17
2018-03-16T22:27:20.194Z,16.87
2018-03-16T22:29:49.351Z,15.10
2018-03-16T22:32:17.769Z,15.60
2018-03-16T22:34:46.148Z,15.23
2018-03-16T22:37:14.638Z,14.20
2018-03-16T22:39:43.000Z,15.33
2018-03-16T22:42:11.406Z,15.03
2018-03-16T22:44:39.797Z,15.27
2018-03-16T22:47:08.130Z,14.57
2018-03-16T22:49:36.487Z,17.27
2018-03-16T22:52:04.807Z,15.87
2018-03-16T22:54:33.184Z,14.13
2018-03-16T22:57:01.533Z,16.00
2018-03-16T22:59:30.219Z,13.23
2018-03-16T23:01:58.552Z,15.23
2018-03-16T23:04:26.908Z,13.80
2018-03-16T23:06:55.301Z,12.27
2018-03-16T23:09:23.634Z,13.90
2018-03-16T23:11:52.159Z,12.27
2018-03-16T23:14:20.507Z,12.37
2018-03-16T23:16:48.852Z,11.80
2018-03-16T23:19:17.174Z,12.07
2018-03-16T23:21:45.613Z,13.70
2018-03-16T23:24:13.951Z,12.07
2018-03-16T23:26:42.291Z,12.20
2018-03-16T23:29:10.645Z,13.40
2018-03-16T23:31:39.000Z,12.33
2018-03-16T23:34:08.396Z,12.83
2018-03-16T23:36:36.790Z,13.07
2018-03-16T23:39:05.160Z,14.20
2018-03-16T23:41:33.485Z,12.83
2018-03-16T23:44:01.853Z,12.43
2018-03-16T23:46:30.236Z,12.17
2018-03-16T23:48:58.572Z,12.70
2018-03-16T23:51:26.924Z,13.53
2018-03-16T23:53:55.268Z,11.97
2018-03-16T23:56:23.599Z,12.13
2018-03-16T23:58:51.914Z,11.17
